My Meet Scores
Chloe Cassan, Aspire Gymnastics Academy - MyMeetScores.com
Top100 | Top Teams | Upcoming Meets | Completed Meets | Latest | Add Scores | Help| Support | Bookmark and Share

Chloe Cassan, Aspire Gymnastics Academy
Personal Bests
LevelVault BarsBeamFloorAA
39.6509.600 9.2509.52537.450
48.9259.400 9.7009.07536.175
59.2008.950 9.1259.22536.000
Meet Scores
Date Meet Team Session Level Division Vault Bars Beam Floor AA
2020-02-21 Great Western Invitational - Women's Aspire Gymnastics Academy 02 5 Pony 8.750 13 8.675 10 8.100 14 8.950 7 34.475 13
2020-02-14 Big Classic Aspire Gymnastics Academy 1A 5 Junior C 8.875 44T 8.700 51T 0.000 82T 0.000 80T 17.575 79
2019-03-22 Illinois Gymnastics State Championships Aspire Gymnastics Academy 3 5 SR A 9.200 15T 8.675 18 8.900 18T 9.225 14T 36.000 15
2019-03-08 Lucky Invite Aspire Gymnastics Academy A07 5 Jr B 8.550 8T 8.950 4T 8.150 9 8.800 5T 34.450 8
2019-02-23 Kinetic Classic 2019 Aspire Gymnastics Academy 1 5 Middle 8.425 11T 8.300 12 8.875 3T 8.250 16T 33.850 10
2019-02-15 Big ClassicBIG CLASSIC Aspire Gymnastics Academy 5B 5 Child D 8.750 10T 8.750 8 8.400 11 8.750 6 34.650 11
2019-01-25 UGA Invitational Aspire Gymnastics Academy B11 5 Jr B 8.750 8T 8.575 9 8.700 8 8.750 7 34.775 8
2019-01-18 2019 Bravo Classic Aspire Gymnastics Academy 2A 5 Jr 8.250 23 8.000 26 9.125 9 8.800 22 34.175 21
2018-12-14 2018 Aspire Classic Aspire Gymnastics Academy 8A 5 Middle 8.950 17T 8.700 13 8.550 19 8.850 9 35.050 14
2018-12-07 St. Nick Invite 2018 Aspire Gymnastics Academy 1 5 SrA 8.800 7T 8.550 7 8.625 11 8.475 14 34.450 10
2018-11-17 Paul Hamm Thanksgiving Class WOMENS Aspire Gymnastics Academy 5 5 Older 8.700 12T 8.600 6 8.300 11 9.100 5 34.700 6
2018-03-08 Level 4 & 5 State Aspire Gymnastics Academy All 4 Jr B 8.475 23T 8.900 13 9.550 7 9.075 16 36.000 14
2018-02-16 Big Classic Aspire Gymnastics Academy 2B 4 Child C 8.550 8T 9.200 8T 9.425 2T 9.000 9 36.175 9
2018-01-26 2018 UGA Classic Aspire Gymnastics Academy AA1 4 Sr A 8.800 7 8.825 8* 9.700 1T 8.850 9 36.175 5T
2017-12-15 2017 Aspire Classic Aspire Gymnastics Academy 3 4 Sr A 8.350 18 9.250 9 8.700 18T 8.500 18 34.800 13
2017-12-08 St. Nick Invite Aspire Gymnastics Academy 7A 4 JrB 8.925 8 9.050 4 9.250 9 8.900 9T 36.125 6
2017-11-16 Paul Hamm Thanksgiving Classic - Women Aspire Gymnastics Academy 7 4 Middle 8.525 20 9.400 13 8.900 21 8.900 17T 35.725 16
2017-03-30 2017 Illinois Level 3 & 5 State Aspire Gymnastics Academy All 3 Jr C 9.650 6T 9.500 5T 8.600 24T 9.325 7T 37.075 10
2017-02-24 Kinetic Classic Aspire Gymnastics Academy 4,5,6,7 3 All Ages 9.150 38T 9.275 22T 9.050 37 9.150 32T 36.625 24T
2017-02-18 2017 Great Western Invitational Women's Aspire Gymnastics Academy 2 3 Pony 9.425 4 9.525 1 9.100 2 9.400 1 37.450 1
2017-01-27 2017 UGA Invitational Aspire Gymnastics Academy B6 3 Sr A 9.050 4 9.225 3 9.225 5 9.150 7T 36.650 3T
2017-01-20 2017 Bravo Classic Aspire Gymnastics Academy 10B 3 9+yrs 9.400 4 9.600 1 8.925 10 9.525 1 37.450 2
2016-12-16 2016 Aspire Classic Aspire Gymnastics Academy 11 3 Older 9.375 7T 9.350 3T 9.000 3T 9.300 3T 37.025 2
2016-12-09 St. Nick Invite Aspire Gymnastics Academy 5 3 All 9.275 34T 8.725 46 9.250 26T 9.200 22T 36.450 29T
2016-11-19 Paul Hamm Thanksgiving Classic - 2016 Girls Aspire Gymnastics Academy 5 3 9+yrs 9.250 3T 9.450 1 8.450 14T 9.250 2 36.400 3
2016-03-04 2016 Illinois Level 3 State Championships Aspire Gymnastics Academy 3 Youth-B 9.575 9 8.925 14 7.600 28 8.625 23 34.725 20
2016-02-13 Western Invite Aspire Gymnastics Academy 1 3 Pony 9.050 16 8.900 8T 8.550 12 8.850 16 35.350 14
2016-01-15 2016 Bravo Classic Aspire Gymnastics Academy 15A 3 8yrs 8.875 22 9.325 8T 8.625 14T 8.800 15T 35.625 15
2015-12-18 2015 Aspire Classic Aspire Gymnastics Academy 9 3 Middle 9.100 15T 9.450 5T 8.925 11 8.725 12T 36.200 11
2015-12-11 St. Nick Invite Aspire Gymnastics Academy 1B 3 All 8.800 48T 9.150 21T 7.900 46 7.700 52 33.550 44
Get your scores on
a t-shirt, pin, or hoodie

www.lazysuits.com